sensor_id;sensor_type;location;lat;lon;timestamp;pressure;altitude;pressure_sealevel;temperature
41940;BMP180;23057;48.554;14.454;2023-05-14T00:01:53;93784.00;;;13.60
41940;BMP180;23057;48.554;14.454;2023-05-14T00:04:24;93776.00;;;13.60
41940;BMP180;23057;48.554;14.454;2023-05-14T00:06:55;93780.00;;;13.60
41940;BMP180;23057;48.554;14.454;2023-05-14T00:09:26;93772.00;;;13.60
41940;BMP180;23057;48.554;14.454;2023-05-14T00:11:56;93771.00;;;13.60
41940;BMP180;23057;48.554;14.454;2023-05-14T00:14:27;93765.00;;;13.60
41940;BMP180;23057;48.554;14.454;2023-05-14T00:16:58;93761.00;;;13.50
41940;BMP180;23057;48.554;14.454;2023-05-14T00:19:29;93764.00;;;13.40
41940;BMP180;23057;48.554;14.454;2023-05-14T00:22:00;93749.00;;;13.40
41940;BMP180;23057;48.554;14.454;2023-05-14T00:24:30;93758.00;;;13.40
41940;BMP180;23057;48.554;14.454;2023-05-14T00:27:02;93747.00;;;13.40
41940;BMP180;23057;48.554;14.454;2023-05-14T00:29:33;93752.00;;;13.30
41940;BMP180;23057;48.554;14.454;2023-05-14T00:32:04;93750.00;;;13.20
41940;BMP180;23057;48.554;14.454;2023-05-14T00:34:35;93752.00;;;13.10
41940;BMP180;23057;48.554;14.454;2023-05-14T00:37:06;93753.00;;;13.00
41940;BMP180;23057;48.554;14.454;2023-05-14T00:39:37;93755.00;;;13.00
41940;BMP180;23057;48.554;14.454;2023-05-14T00:42:08;93749.00;;;12.90
41940;BMP180;23057;48.554;14.454;2023-05-14T00:44:38;93743.00;;;12.90
41940;BMP180;23057;48.554;14.454;2023-05-14T00:49:50;93747.00;;;12.80
41940;BMP180;23057;48.554;14.454;2023-05-14T00:52:20;93743.00;;;12.80
41940;BMP180;23057;48.554;14.454;2023-05-14T00:54:51;93748.00;;;12.80
41940;BMP180;23057;48.554;14.454;2023-05-14T00:57:23;93749.00;;;12.80
41940;BMP180;23057;48.554;14.454;2023-05-14T00:59:54;93741.00;;;12.70
41940;BMP180;23057;48.554;14.454;2023-05-14T01:02:25;93743.00;;;12.70
41940;BMP180;23057;48.554;14.454;2023-05-14T01:04:56;93738.00;;;12.70
41940;BMP180;23057;48.554;14.454;2023-05-14T01:07:37;93742.00;;;12.60
41940;BMP180;23057;48.554;14.454;2023-05-14T01:16:11;93743.00;;;12.60
41940;BMP180;23057;48.554;14.454;2023-05-14T01:18:44;93733.00;;;12.60
41940;BMP180;23057;48.554;14.454;2023-05-14T01:21:32;93729.00;;;12.50
41940;BMP180;23057;48.554;14.454;2023-05-14T01:24:07;93727.00;;;12.50
41940;BMP180;23057;48.554;14.454;2023-05-14T01:26:38;93717.00;;;12.50
41940;BMP180;23057;48.554;14.454;2023-05-14T01:29:19;93723.00;;;12.50
41940;BMP180;23057;48.554;14.454;2023-05-14T01:31:52;93726.00;;;12.40
41940;BMP180;23057;48.554;14.454;2023-05-14T01:34:28;93727.00;;;12.40
41940;BMP180;23057;48.554;14.454;2023-05-14T01:37:00;93721.00;;;12.40
41940;BMP180;23057;48.554;14.454;2023-05-14T01:39:35;93714.00;;;12.40
41940;BMP180;23057;48.554;14.454;2023-05-14T01:42:08;93709.00;;;12.40
41940;BMP180;23057;48.554;14.454;2023-05-14T01:44:39;93707.00;;;12.40
41940;BMP180;23057;48.554;14.454;2023-05-14T01:47:10;93711.00;;;12.40
41940;BMP180;23057;48.554;14.454;2023-05-14T01:49:41;93709.00;;;12.40
41940;BMP180;23057;48.554;14.454;2023-05-14T01:52:12;93709.00;;;12.30
41940;BMP180;23057;48.554;14.454;2023-05-14T01:54:43;93705.00;;;12.30
41940;BMP180;23057;48.554;14.454;2023-05-14T01:57:14;93710.00;;;12.20
41940;BMP180;23057;48.554;14.454;2023-05-14T01:59:44;93705.00;;;12.20
41940;BMP180;23057;48.554;14.454;2023-05-14T02:02:15;93707.00;;;12.20
41940;BMP180;23057;48.554;14.454;2023-05-14T02:04:46;93706.00;;;12.20
41940;BMP180;23057;48.554;14.454;2023-05-14T02:07:17;93696.00;;;12.20
41940;BMP180;23057;48.554;14.454;2023-05-14T02:09:47;93694.00;;;12.20
41940;BMP180;23057;48.554;14.454;2023-05-14T02:12:18;93706.00;;;12.10
41940;BMP180;23057;48.554;14.454;2023-05-14T02:14:49;93707.00;;;12.10
41940;BMP180;23057;48.554;14.454;2023-05-14T02:17:20;93699.00;;;12.10
41940;BMP180;23057;48.554;14.454;2023-05-14T02:19:51;93697.00;;;12.10
41940;BMP180;23057;48.554;14.454;2023-05-14T02:22:22;93706.00;;;12.10
41940;BMP180;23057;48.554;14.454;2023-05-14T02:24:52;93705.00;;;12.10
41940;BMP180;23057;48.554;14.454;2023-05-14T02:27:23;93699.00;;;12.10
41940;BMP180;23057;48.554;14.454;2023-05-14T02:29:54;93700.00;;;12.10
41940;BMP180;23057;48.554;14.454;2023-05-14T02:32:29;93705.00;;;12.20
41940;BMP180;23057;48.554;14.454;2023-05-14T02:35:00;93684.00;;;12.20
41940;BMP180;23057;48.554;14.454;2023-05-14T02:37:31;93699.00;;;12.20
41940;BMP180;23057;48.554;14.454;2023-05-14T02:40:04;93699.00;;;12.20
41940;BMP180;23057;48.554;14.454;2023-05-14T02:42:35;93691.00;;;12.20
41940;BMP180;23057;48.554;14.454;2023-05-14T02:45:07;93689.00;;;12.20
41940;BMP180;23057;48.554;14.454;2023-05-14T02:47:37;93693.00;;;12.20
41940;BMP180;23057;48.554;14.454;2023-05-14T02:50:08;93694.00;;;12.10
41940;BMP180;23057;48.554;14.454;2023-05-14T02:52:40;93691.00;;;12.10
41940;BMP180;23057;48.554;14.454;2023-05-14T02:55:11;93699.00;;;12.00
41940;BMP180;23057;48.554;14.454;2023-05-14T02:57:42;93690.00;;;12.00
41940;BMP180;23057;48.554;14.454;2023-05-14T03:00:13;93689.00;;;12.00
41940;BMP180;23057;48.554;14.454;2023-05-14T03:02:44;93696.00;;;11.90
41940;BMP180;23057;48.554;14.454;2023-05-14T03:05:15;93688.00;;;11.90
41940;BMP180;23057;48.554;14.454;2023-05-14T03:07:46;93691.00;;;11.80
41940;BMP180;23057;48.554;14.454;2023-05-14T03:10:16;93675.00;;;11.80
41940;BMP180;23057;48.554;14.454;2023-05-14T03:12:47;93683.00;;;11.80
41940;BMP180;23057;48.554;14.454;2023-05-14T03:15:18;93687.00;;;11.90
41940;BMP180;23057;48.554;14.454;2023-05-14T03:17:49;93677.00;;;11.90
41940;BMP180;23057;48.554;14.454;2023-05-14T03:20:22;93672.00;;;11.90
41940;BMP180;23057;48.554;14.454;2023-05-14T03:22:54;93671.00;;;11.90
41940;BMP180;23057;48.554;14.454;2023-05-14T03:25:25;93679.00;;;11.90
41940;BMP180;23057;48.554;14.454;2023-05-14T03:27:56;93669.00;;;11.90
41940;BMP180;23057;48.554;14.454;2023-05-14T03:30:27;93671.00;;;11.90
41940;BMP180;23057;48.554;14.454;2023-05-14T03:32:58;93669.00;;;11.80
41940;BMP180;23057;48.554;14.454;2023-05-14T03:35:29;93669.00;;;11.80
41940;BMP180;23057;48.554;14.454;2023-05-14T03:37:59;93668.00;;;11.80
41940;BMP180;23057;48.554;14.454;2023-05-14T03:40:30;93669.00;;;11.70
41940;BMP180;23057;48.554;14.454;2023-05-14T03:43:01;93665.00;;;11.70
41940;BMP180;23057;48.554;14.454;2023-05-14T03:45:32;93658.00;;;11.60
41940;BMP180;23057;48.554;14.454;2023-05-14T03:48:03;93669.00;;;11.60
41940;BMP180;23057;48.554;14.454;2023-05-14T03:50:34;93668.00;;;11.60
41940;BMP180;23057;48.554;14.454;2023-05-14T03:53:05;93660.00;;;11.60
41940;BMP180;23057;48.554;14.454;2023-05-14T03:55:36;93659.00;;;11.60
41940;BMP180;23057;48.554;14.454;2023-05-14T03:58:07;93655.00;;;11.60
41940;BMP180;23057;48.554;14.454;2023-05-14T04:00:43;93673.00;;;11.60
41940;BMP180;23057;48.554;14.454;2023-05-14T04:03:14;93657.00;;;11.80
41940;BMP180;23057;48.554;14.454;2023-05-14T04:05:45;93660.00;;;12.00
41940;BMP180;23057;48.554;14.454;2023-05-14T04:08:15;93671.00;;;12.10
41940;BMP180;23057;48.554;14.454;2023-05-14T04:10:46;93656.00;;;12.40
41940;BMP180;23057;48.554;14.454;2023-05-14T04:13:17;93660.00;;;12.50
41940;BMP180;23057;48.554;14.454;2023-05-14T04:15:48;93656.00;;;12.60
41940;BMP180;23057;48.554;14.454;2023-05-14T04:18:18;93659.00;;;12.70
41940;BMP180;23057;48.554;14.454;2023-05-14T04:20:49;93656.00;;;12.90
41940;BMP180;23057;48.554;14.454;2023-05-14T04:23:20;93651.00;;;13.10
41940;BMP180;23057;48.554;14.454;2023-05-14T04:25:51;93650.00;;;13.30
41940;BMP180;23057;48.554;14.454;2023-05-14T04:28:22;93658.00;;;13.30
41940;BMP180;23057;48.554;14.454;2023-05-14T04:30:53;93648.00;;;13.40
41940;BMP180;23057;48.554;14.454;2023-05-14T04:33:23;93657.00;;;13.40
41940;BMP180;23057;48.554;14.454;2023-05-14T04:35:54;93656.00;;;13.50
41940;BMP180;23057;48.554;14.454;2023-05-14T04:38:25;93655.00;;;13.70
41940;BMP180;23057;48.554;14.454;2023-05-14T04:40:56;93655.00;;;14.00
41940;BMP180;23057;48.554;14.454;2023-05-14T04:43:27;93659.00;;;14.30
41940;BMP180;23057;48.554;14.454;2023-05-14T04:45:58;93658.00;;;14.40
41940;BMP180;23057;48.554;14.454;2023-05-14T04:48:29;93660.00;;;14.40
41940;BMP180;23057;48.554;14.454;2023-05-14T04:50:59;93664.00;;;14.40
41940;BMP180;23057;48.554;14.454;2023-05-14T04:53:30;93653.00;;;14.20
41940;BMP180;23057;48.554;14.454;2023-05-14T04:56:01;93646.00;;;14.10
41940;BMP180;23057;48.554;14.454;2023-05-14T04:58:32;93651.00;;;13.90
41940;BMP180;23057;48.554;14.454;2023-05-14T05:01:03;93651.00;;;13.80
41940;BMP180;23057;48.554;14.454;2023-05-14T05:03:35;93646.00;;;13.80
41940;BMP180;23057;48.554;14.454;2023-05-14T05:06:06;93652.00;;;13.90
41940;BMP180;23057;48.554;14.454;2023-05-14T05:08:37;93648.00;;;14.10
41940;BMP180;23057;48.554;14.454;2023-05-14T05:11:07;93653.00;;;14.20
41940;BMP180;23057;48.554;14.454;2023-05-14T05:13:38;93653.00;;;14.40
41940;BMP180;23057;48.554;14.454;2023-05-14T05:16:09;93653.00;;;14.60
41940;BMP180;23057;48.554;14.454;2023-05-14T05:18:39;93657.00;;;14.90
41940;BMP180;23057;48.554;14.454;2023-05-14T05:21:10;93666.00;;;15.20
41940;BMP180;23057;48.554;14.454;2023-05-14T05:23:41;93654.00;;;15.50
41940;BMP180;23057;48.554;14.454;2023-05-14T05:26:12;93654.00;;;15.80
41940;BMP180;23057;48.554;14.454;2023-05-14T05:28:42;93640.00;;;16.10
41940;BMP180;23057;48.554;14.454;2023-05-14T05:31:13;93640.00;;;16.30
41940;BMP180;23057;48.554;14.454;2023-05-14T05:33:44;93635.00;;;16.50
41940;BMP180;23057;48.554;14.454;2023-05-14T05:36:15;93642.00;;;16.80
41940;BMP180;23057;48.554;14.454;2023-05-14T05:38:45;93641.00;;;17.10
41940;BMP180;23057;48.554;14.454;2023-05-14T05:41:16;93640.00;;;17.30
41940;BMP180;23057;48.554;14.454;2023-05-14T05:43:47;93642.00;;;17.60
41940;BMP180;23057;48.554;14.454;2023-05-14T05:46:18;93639.00;;;17.80
41940;BMP180;23057;48.554;14.454;2023-05-14T05:48:48;93646.00;;;18.00
41940;BMP180;23057;48.554;14.454;2023-05-14T05:51:19;93637.00;;;18.20
41940;BMP180;23057;48.554;14.454;2023-05-14T05:53:50;93634.00;;;18.50
41940;BMP180;23057;48.554;14.454;2023-05-14T05:56:21;93649.00;;;18.90
41940;BMP180;23057;48.554;14.454;2023-05-14T05:58:52;93648.00;;;19.10
41940;BMP180;23057;48.554;14.454;2023-05-14T06:01:23;93643.00;;;19.30
41940;BMP180;23057;48.554;14.454;2023-05-14T06:03:53;93646.00;;;19.50
41940;BMP180;23057;48.554;14.454;2023-05-14T06:06:24;93645.00;;;19.70
41940;BMP180;23057;48.554;14.454;2023-05-14T06:08:55;93650.00;;;19.90
41940;BMP180;23057;48.554;14.454;2023-05-14T06:11:26;93649.00;;;20.00
41940;BMP180;23057;48.554;14.454;2023-05-14T06:13:57;93651.00;;;20.10
41940;BMP180;23057;48.554;14.454;2023-05-14T06:16:27;93651.00;;;20.10
41940;BMP180;23057;48.554;14.454;2023-05-14T06:18:58;93644.00;;;20.30
41940;BMP180;23057;48.554;14.454;2023-05-14T06:21:29;93663.00;;;20.40
41940;BMP180;23057;48.554;14.454;2023-05-14T06:24:00;93669.00;;;20.40
41940;BMP180;23057;48.554;14.454;2023-05-14T06:26:31;93663.00;;;20.40
41940;BMP180;23057;48.554;14.454;2023-05-14T06:29:01;93667.00;;;20.40
41940;BMP180;23057;48.554;14.454;2023-05-14T06:31:32;93674.00;;;20.30
41940;BMP180;23057;48.554;14.454;2023-05-14T06:34:03;93673.00;;;20.30
41940;BMP180;23057;48.554;14.454;2023-05-14T06:36:34;93674.00;;;20.20
41940;BMP180;23057;48.554;14.454;2023-05-14T06:39:04;93663.00;;;20.20
41940;BMP180;23057;48.554;14.454;2023-05-14T06:41:35;93654.00;;;20.40
41940;BMP180;23057;48.554;14.454;2023-05-14T06:44:06;93659.00;;;20.50
41940;BMP180;23057;48.554;14.454;2023-05-14T06:46:37;93657.00;;;20.70
41940;BMP180;23057;48.554;14.454;2023-05-14T06:49:07;93658.00;;;20.80
41940;BMP180;23057;48.554;14.454;2023-05-14T06:51:38;93659.00;;;21.00
41940;BMP180;23057;48.554;14.454;2023-05-14T06:54:10;93663.00;;;21.20
41940;BMP180;23057;48.554;14.454;2023-05-14T06:56:41;93667.00;;;21.30
41940;BMP180;23057;48.554;14.454;2023-05-14T06:59:11;93664.00;;;21.30
41940;BMP180;23057;48.554;14.454;2023-05-14T07:01:42;93654.00;;;21.30
41940;BMP180;23057;48.554;14.454;2023-05-14T07:04:13;93660.00;;;21.30
41940;BMP180;23057;48.554;14.454;2023-05-14T07:06:44;93653.00;;;21.20
41940;BMP180;23057;48.554;14.454;2023-05-14T07:09:15;93646.00;;;21.20
41940;BMP180;23057;48.554;14.454;2023-05-14T07:11:46;93652.00;;;21.30
41940;BMP180;23057;48.554;14.454;2023-05-14T07:14:16;93635.00;;;21.30
41940;BMP180;23057;48.554;14.454;2023-05-14T07:16:47;93644.00;;;21.20
41940;BMP180;23057;48.554;14.454;2023-05-14T07:19:18;93637.00;;;21.20
41940;BMP180;23057;48.554;14.454;2023-05-14T07:21:49;93632.00;;;21.10
41940;BMP180;23057;48.554;14.454;2023-05-14T07:24:20;93627.00;;;21.10
41940;BMP180;23057;48.554;14.454;2023-05-14T07:26:51;93627.00;;;21.10
41940;BMP180;23057;48.554;14.454;2023-05-14T07:29:23;93624.00;;;21.20
41940;BMP180;23057;48.554;14.454;2023-05-14T07:31:54;93626.00;;;21.20
41940;BMP180;23057;48.554;14.454;2023-05-14T07:34:25;93614.00;;;21.30
41940;BMP180;23057;48.554;14.454;2023-05-14T07:36:56;93606.00;;;21.40
41940;BMP180;23057;48.554;14.454;2023-05-14T07:39:27;93615.00;;;21.50
41940;BMP180;23057;48.554;14.454;2023-05-14T07:41:59;93606.00;;;21.60
41940;BMP180;23057;48.554;14.454;2023-05-14T07:44:30;93617.00;;;21.60
41940;BMP180;23057;48.554;14.454;2023-05-14T07:47:01;93609.00;;;21.60
41940;BMP180;23057;48.554;14.454;2023-05-14T07:49:33;93611.00;;;21.60
41940;BMP180;23057;48.554;14.454;2023-05-14T07:52:04;93601.00;;;21.60
41940;BMP180;23057;48.554;14.454;2023-05-14T07:54:35;93608.00;;;21.70
41940;BMP180;23057;48.554;14.454;2023-05-14T07:57:05;93610.00;;;21.70
41940;BMP180;23057;48.554;14.454;2023-05-14T07:59:36;93604.00;;;21.80
41940;BMP180;23057;48.554;14.454;2023-05-14T08:02:07;93593.00;;;21.80
41940;BMP180;23057;48.554;14.454;2023-05-14T08:04:41;93608.00;;;21.70
41940;BMP180;23057;48.554;14.454;2023-05-14T08:07:12;93607.00;;;21.70
41940;BMP180;23057;48.554;14.454;2023-05-14T08:09:43;93606.00;;;21.60
41940;BMP180;23057;48.554;14.454;2023-05-14T08:12:14;93602.00;;;21.50
41940;BMP180;23057;48.554;14.454;2023-05-14T08:14:45;93600.00;;;21.40
41940;BMP180;23057;48.554;14.454;2023-05-14T08:17:16;93591.00;;;21.30
41940;BMP180;23057;48.554;14.454;2023-05-14T08:19:47;93598.00;;;21.20
41940;BMP180;23057;48.554;14.454;2023-05-14T08:22:18;93605.00;;;21.10
41940;BMP180;23057;48.554;14.454;2023-05-14T08:24:49;93597.00;;;21.00
41940;BMP180;23057;48.554;14.454;2023-05-14T08:27:20;93594.00;;;21.00
41940;BMP180;23057;48.554;14.454;2023-05-14T08:29:50;93592.00;;;20.90
41940;BMP180;23057;48.554;14.454;2023-05-14T08:32:21;93596.00;;;20.80
41940;BMP180;23057;48.554;14.454;2023-05-14T08:34:52;93593.00;;;20.70
41940;BMP180;23057;48.554;14.454;2023-05-14T08:37:23;93596.00;;;20.70
41940;BMP180;23057;48.554;14.454;2023-05-14T08:39:54;93587.00;;;20.70
41940;BMP180;23057;48.554;14.454;2023-05-14T08:42:25;93596.00;;;20.70
41940;BMP180;23057;48.554;14.454;2023-05-14T08:45:02;93603.00;;;20.60
41940;BMP180;23057;48.554;14.454;2023-05-14T08:47:35;93613.00;;;20.50
41940;BMP180;23057;48.554;14.454;2023-05-14T08:50:06;93600.00;;;20.50
41940;BMP180;23057;48.554;14.454;2023-05-14T08:52:38;93599.00;;;20.30
41940;BMP180;23057;48.554;14.454;2023-05-14T08:55:10;93609.00;;;20.20
41940;BMP180;23057;48.554;14.454;2023-05-14T08:57:41;93613.00;;;20.10
41940;BMP180;23057;48.554;14.454;2023-05-14T09:00:13;93613.00;;;19.90
41940;BMP180;23057;48.554;14.454;2023-05-14T09:02:45;93600.00;;;19.70
41940;BMP180;23057;48.554;14.454;2023-05-14T09:05:18;93610.00;;;19.60
41940;BMP180;23057;48.554;14.454;2023-05-14T09:07:49;93609.00;;;19.50
41940;BMP180;23057;48.554;14.454;2023-05-14T09:10:20;93598.00;;;19.40
41940;BMP180;23057;48.554;14.454;2023-05-14T09:12:51;93610.00;;;19.30
41940;BMP180;23057;48.554;14.454;2023-05-14T09:15:23;93609.00;;;19.10
41940;BMP180;23057;48.554;14.454;2023-05-14T09:17:57;93608.00;;;19.00
41940;BMP180;23057;48.554;14.454;2023-05-14T09:20:28;93617.00;;;19.00
41940;BMP180;23057;48.554;14.454;2023-05-14T09:22:58;93607.00;;;18.90
41940;BMP180;23057;48.554;14.454;2023-05-14T09:25:32;93621.00;;;18.80
41940;BMP180;23057;48.554;14.454;2023-05-14T09:28:07;93622.00;;;18.80
41940;BMP180;23057;48.554;14.454;2023-05-14T09:30:38;93622.00;;;18.70
41940;BMP180;23057;48.554;14.454;2023-05-14T09:33:09;93632.00;;;18.60
41940;BMP180;23057;48.554;14.454;2023-05-14T09:35:40;93620.00;;;18.60
41940;BMP180;23057;48.554;14.454;2023-05-14T09:38:12;93624.00;;;18.50
41940;BMP180;23057;48.554;14.454;2023-05-14T09:40:45;93619.00;;;18.50
41940;BMP180;23057;48.554;14.454;2023-05-14T09:43:16;93607.00;;;18.40
41940;BMP180;23057;48.554;14.454;2023-05-14T09:45:46;93613.00;;;18.30
41940;BMP180;23057;48.554;14.454;2023-05-14T09:48:18;93601.00;;;18.30
41940;BMP180;23057;48.554;14.454;2023-05-14T09:50:49;93604.00;;;18.30
41940;BMP180;23057;48.554;14.454;2023-05-14T09:53:20;93597.00;;;18.30
41940;BMP180;23057;48.554;14.454;2023-05-14T09:55:51;93608.00;;;18.30
41940;BMP180;23057;48.554;14.454;2023-05-14T09:58:22;93604.00;;;18.30
41940;BMP180;23057;48.554;14.454;2023-05-14T10:00:53;93610.00;;;18.40
41940;BMP180;23057;48.554;14.454;2023-05-14T10:03:28;93603.00;;;18.40
41940;BMP180;23057;48.554;14.454;2023-05-14T10:06:03;93605.00;;;18.40
41940;BMP180;23057;48.554;14.454;2023-05-14T10:08:40;93611.00;;;18.40
41940;BMP180;23057;48.554;14.454;2023-05-14T10:11:14;93614.00;;;18.40
41940;BMP180;23057;48.554;14.454;2023-05-14T10:14:02;93617.00;;;18.40
41940;BMP180;23057;48.554;14.454;2023-05-14T10:16:36;93607.00;;;18.40
41940;BMP180;23057;48.554;14.454;2023-05-14T10:19:14;93613.00;;;18.30
41940;BMP180;23057;48.554;14.454;2023-05-14T10:21:52;93624.00;;;18.30
41940;BMP180;23057;48.554;14.454;2023-05-14T10:24:26;93606.00;;;18.20
41940;BMP180;23057;48.554;14.454;2023-05-14T10:26:57;93611.00;;;18.10
41940;BMP180;23057;48.554;14.454;2023-05-14T10:29:33;93622.00;;;18.00
41940;BMP180;23057;48.554;14.454;2023-05-14T10:32:06;93608.00;;;17.90
41940;BMP180;23057;48.554;14.454;2023-05-14T10:34:42;93611.00;;;17.90
41940;BMP180;23057;48.554;14.454;2023-05-14T10:37:15;93608.00;;;17.90
41940;BMP180;23057;48.554;14.454;2023-05-14T10:40:00;93614.00;;;17.80
41940;BMP180;23057;48.554;14.454;2023-05-14T10:42:37;93607.00;;;17.80
41940;BMP180;23057;48.554;14.454;2023-05-14T10:45:13;93607.00;;;17.80
41940;BMP180;23057;48.554;14.454;2023-05-14T10:47:45;93602.00;;;17.80
41940;BMP180;23057;48.554;14.454;2023-05-14T10:50:17;93603.00;;;17.80
41940;BMP180;23057;48.554;14.454;2023-05-14T10:52:47;93597.00;;;17.80
41940;BMP180;23057;48.554;14.454;2023-05-14T10:55:20;93600.00;;;17.60
41940;BMP180;23057;48.554;14.454;2023-05-14T10:57:51;93604.00;;;17.60
41940;BMP180;23057;48.554;14.454;2023-05-14T11:00:24;93604.00;;;17.50
41940;BMP180;23057;48.554;14.454;2023-05-14T11:02:57;93590.00;;;17.50
41940;BMP180;23057;48.554;14.454;2023-05-14T11:05:28;93594.00;;;17.40
41940;BMP180;23057;48.554;14.454;2023-05-14T11:08:01;93595.00;;;17.30
41940;BMP180;23057;48.554;14.454;2023-05-14T11:10:36;93589.00;;;17.30
41940;BMP180;23057;48.554;14.454;2023-05-14T11:13:09;93579.00;;;17.30
41940;BMP180;23057;48.554;14.454;2023-05-14T11:15:41;93588.00;;;17.20
41940;BMP180;23057;48.554;14.454;2023-05-14T11:18:30;93584.00;;;17.30
41940;BMP180;23057;48.554;14.454;2023-05-14T11:21:03;93579.00;;;17.30
41940;BMP180;23057;48.554;14.454;2023-05-14T11:23:33;93575.00;;;17.40
41940;BMP180;23057;48.554;14.454;2023-05-14T11:26:04;93574.00;;;17.40
41940;BMP180;23057;48.554;14.454;2023-05-14T11:28:35;93575.00;;;17.50
41940;BMP180;23057;48.554;14.454;2023-05-14T11:31:06;93573.00;;;17.60
41940;BMP180;23057;48.554;14.454;2023-05-14T11:33:38;93571.00;;;17.70
41940;BMP180;23057;48.554;14.454;2023-05-14T11:36:10;93558.00;;;17.70
41940;BMP180;23057;48.554;14.454;2023-05-14T11:38:45;93564.00;;;17.70
41940;BMP180;23057;48.554;14.454;2023-05-14T11:41:21;93565.00;;;17.70
41940;BMP180;23057;48.554;14.454;2023-05-14T11:43:52;93559.00;;;17.70
41940;BMP180;23057;48.554;14.454;2023-05-14T11:46:23;93557.00;;;17.70
41940;BMP180;23057;48.554;14.454;2023-05-14T11:48:55;93553.00;;;17.70
41940;BMP180;23057;48.554;14.454;2023-05-14T11:51:26;93548.00;;;17.70
41940;BMP180;23057;48.554;14.454;2023-05-14T11:53:57;93550.00;;;17.80
41940;BMP180;23057;48.554;14.454;2023-05-14T11:56:30;93545.00;;;17.70
41940;BMP180;23057;48.554;14.454;2023-05-14T11:59:01;93542.00;;;17.70
41940;BMP180;23057;48.554;14.454;2023-05-14T12:01:36;93540.00;;;17.70
41940;BMP180;23057;48.554;14.454;2023-05-14T12:04:08;93530.00;;;17.70
41940;BMP180;23057;48.554;14.454;2023-05-14T12:06:39;93528.00;;;17.70
41940;BMP180;23057;48.554;14.454;2023-05-14T12:09:11;93525.00;;;17.70
41940;BMP180;23057;48.554;14.454;2023-05-14T12:11:46;93526.00;;;17.70
41940;BMP180;23057;48.554;14.454;2023-05-14T12:14:20;93524.00;;;17.70
41940;BMP180;23057;48.554;14.454;2023-05-14T12:16:52;93515.00;;;17.70
41940;BMP180;23057;48.554;14.454;2023-05-14T12:19:22;93513.00;;;17.80
41940;BMP180;23057;48.554;14.454;2023-05-14T12:21:55;93511.00;;;17.80
41940;BMP180;23057;48.554;14.454;2023-05-14T12:24:30;93509.00;;;17.80
41940;BMP180;23057;48.554;14.454;2023-05-14T12:27:01;93506.00;;;17.80
41940;BMP180;23057;48.554;14.454;2023-05-14T12:29:37;93510.00;;;17.80
41940;BMP180;23057;48.554;14.454;2023-05-14T12:32:10;93508.00;;;17.70
41940;BMP180;23057;48.554;14.454;2023-05-14T12:34:41;93504.00;;;17.70
41940;BMP180;23057;48.554;14.454;2023-05-14T12:37:12;93505.00;;;17.80
41940;BMP180;23057;48.554;14.454;2023-05-14T12:39:43;93494.00;;;17.80
41940;BMP180;23057;48.554;14.454;2023-05-14T12:42:14;93503.00;;;17.80
41940;BMP180;23057;48.554;14.454;2023-05-14T12:44:45;93505.00;;;17.70
41940;BMP180;23057;48.554;14.454;2023-05-14T12:47:16;93501.00;;;17.70
41940;BMP180;23057;48.554;14.454;2023-05-14T12:49:47;93487.00;;;17.70
41940;BMP180;23057;48.554;14.454;2023-05-14T12:52:18;93492.00;;;17.70
41940;BMP180;23057;48.554;14.454;2023-05-14T12:54:48;93485.00;;;17.60
41940;BMP180;23057;48.554;14.454;2023-05-14T12:57:19;93493.00;;;17.60
41940;BMP180;23057;48.554;14.454;2023-05-14T12:59:50;93500.00;;;17.60
41940;BMP180;23057;48.554;14.454;2023-05-14T13:02:21;93494.00;;;17.50
41940;BMP180;23057;48.554;14.454;2023-05-14T13:04:51;93482.00;;;17.50
41940;BMP180;23057;48.554;14.454;2023-05-14T13:07:22;93489.00;;;17.50
41940;BMP180;23057;48.554;14.454;2023-05-14T13:09:53;93485.00;;;17.40
41940;BMP180;23057;48.554;14.454;2023-05-14T13:12:24;93488.00;;;17.40
41940;BMP180;23057;48.554;14.454;2023-05-14T13:14:54;93478.00;;;17.30
41940;BMP180;23057;48.554;14.454;2023-05-14T13:17:25;93465.00;;;17.30
41940;BMP180;23057;48.554;14.454;2023-05-14T13:19:56;93477.00;;;17.30
41940;BMP180;23057;48.554;14.454;2023-05-14T13:22:27;93472.00;;;17.30
41940;BMP180;23057;48.554;14.454;2023-05-14T13:24:59;93466.00;;;17.30
41940;BMP180;23057;48.554;14.454;2023-05-14T13:27:29;93460.00;;;17.30
41940;BMP180;23057;48.554;14.454;2023-05-14T13:30:00;93463.00;;;17.20
41940;BMP180;23057;48.554;14.454;2023-05-14T13:32:31;93467.00;;;17.20
41940;BMP180;23057;48.554;14.454;2023-05-14T13:35:02;93471.00;;;17.20
41940;BMP180;23057;48.554;14.454;2023-05-14T13:37:32;93460.00;;;17.20
41940;BMP180;23057;48.554;14.454;2023-05-14T13:40:04;93458.00;;;17.20
41940;BMP180;23057;48.554;14.454;2023-05-14T13:42:38;93453.00;;;17.10
41940;BMP180;23057;48.554;14.454;2023-05-14T13:45:09;93455.00;;;17.10
41940;BMP180;23057;48.554;14.454;2023-05-14T13:47:41;93453.00;;;17.10
41940;BMP180;23057;48.554;14.454;2023-05-14T13:50:11;93450.00;;;17.10
41940;BMP180;23057;48.554;14.454;2023-05-14T13:52:43;93447.00;;;17.00
41940;BMP180;23057;48.554;14.454;2023-05-14T13:55:13;93445.00;;;17.10
41940;BMP180;23057;48.554;14.454;2023-05-14T13:57:45;93447.00;;;17.00
41940;BMP180;23057;48.554;14.454;2023-05-14T14:00:16;93438.00;;;17.10
41940;BMP180;23057;48.554;14.454;2023-05-14T14:02:47;93441.00;;;17.00
41940;BMP180;23057;48.554;14.454;2023-05-14T14:05:18;93444.00;;;17.00
41940;BMP180;23057;48.554;14.454;2023-05-14T14:07:49;93439.00;;;17.00
41940;BMP180;23057;48.554;14.454;2023-05-14T14:10:20;93439.00;;;16.90
41940;BMP180;23057;48.554;14.454;2023-05-14T14:12:51;93440.00;;;16.90
41940;BMP180;23057;48.554;14.454;2023-05-14T14:15:22;93440.00;;;16.90
41940;BMP180;23057;48.554;14.454;2023-05-14T14:17:52;93447.00;;;16.90
41940;BMP180;23057;48.554;14.454;2023-05-14T14:20:23;93447.00;;;16.90
41940;BMP180;23057;48.554;14.454;2023-05-14T14:22:54;93438.00;;;16.90
41940;BMP180;23057;48.554;14.454;2023-05-14T14:25:25;93441.00;;;17.00
41940;BMP180;23057;48.554;14.454;2023-05-14T14:27:56;93437.00;;;16.90
41940;BMP180;23057;48.554;14.454;2023-05-14T14:30:27;93440.00;;;17.00